Time,TemperatureF,DewpointF,PressureIn,WindDirection,WindDirectionDegrees,WindSpeedMPH,WindSpeedGustMPH,Humidity,HourlyPrecipIn,Conditions,Clouds,dailyrainin,SoftwareType,DateUTC
2013-09-09 00:04:00,66.6,63.6,29.82,SE,135,0.0,2.0,90,0.00,,,-99.99,WeatherLink 5.7,2013-09-09 05:04:00,
2013-09-09 00:20:00,66.6,63.6,29.82,North,-999,0.0,0.0,90,0.00,,,-99.99,WeatherLink 5.7,2013-09-09 05:20:00,
2013-09-09 00:35:00,66.4,63.4,29.82,SE,135,0.0,1.0,90,0.00,,,-99.99,WeatherLink 5.7,2013-09-09 05:35:00,
2013-09-09 00:49:00,66.4,63.7,29.82,NNE,22,0.0,2.0,91,0.00,,,-99.99,WeatherLink 5.7,2013-09-09 05:49:00,
2013-09-09 01:04:00,66.4,63.7,29.81,NNE,22,0.0,1.0,91,0.00,,,-99.99,WeatherLink 5.7,2013-09-09 06:04:00,
2013-09-09 01:19:00,66.3,63.6,29.80,NE,45,0.0,1.0,91,0.00,,,-99.99,WeatherLink 5.7,2013-09-09 06:19:00,
2013-09-09 01:35:00,66.1,63.7,29.80,NE,45,0.0,1.0,92,0.00,,,-99.99,WeatherLink 5.7,2013-09-09 06:35:00,
2013-09-09 01:49:00,66.1,63.7,29.79,North,-999,0.0,0.0,92,0.00,,,-99.99,WeatherLink 5.7,2013-09-09 06:49:00,
2013-09-09 02:04:00,66.1,64.0,29.79,NE,45,0.0,1.0,93,0.00,,,-99.99,WeatherLink 5.7,2013-09-09 07:04:00,
2013-09-09 02:19:00,66.1,64.0,29.79,ESE,112,0.0,3.0,93,0.00,,,-99.99,WeatherLink 5.7,2013-09-09 07:19:00,
2013-09-09 02:34:00,66.1,64.0,29.79,ESE,112,0.0,1.0,93,0.00,,,-99.99,WeatherLink 5.7,2013-09-09 07:34:00,
2013-09-09 02:49:00,66.0,64.2,29.78,North,-999,0.0,0.0,94,0.00,,,-99.99,WeatherLink 5.7,2013-09-09 07:49:00,
2013-09-09 03:05:00,65.8,64.0,29.77,North,-999,0.0,0.0,94,0.00,,,-99.99,WeatherLink 5.7,2013-09-09 08:05:00,
2013-09-09 03:20:00,65.6,63.8,29.77,ESE,112,0.0,2.0,94,0.00,,,-99.99,WeatherLink 5.7,2013-09-09 08:20:00,
2013-09-09 03:34:00,65.6,64.1,29.77,North,-999,0.0,0.0,95,0.00,,,-99.99,WeatherLink 5.7,2013-09-09 08:34:00,
2013-09-09 03:49:00,65.6,64.1,29.77,ESE,112,0.0,1.0,95,0.00,,,-99.99,WeatherLink 5.7,2013-09-09 08:49:00,
2013-09-09 04:04:00,65.6,64.1,29.77,North,-999,0.0,0.0,95,0.00,,,-99.99,WeatherLink 5.7,2013-09-09 09:04:00,
2013-09-09 04:19:00,65.5,64.0,29.77,North,-999,0.0,0.0,95,0.00,,,-99.99,WeatherLink 5.7,2013-09-09 09:19:00,
2013-09-09 04:34:00,65.3,63.8,29.76,North,-999,0.0,0.0,95,0.00,,,-99.99,WeatherLink 5.7,2013-09-09 09:34:00,
2013-09-09 04:49:00,65.2,63.7,29.76,ESE,112,0.0,1.0,95,0.00,,,-99.99,WeatherLink 5.7,2013-09-09 09:49:00,
2013-09-09 05:05:00,65.2,64.0,29.76,North,-999,0.0,0.0,96,0.00,,,-99.99,WeatherLink 5.7,2013-09-09 10:05:00,
2013-09-09 05:20:00,65.5,64.3,29.75,North,-999,0.0,0.0,96,0.00,,,-99.99,WeatherLink 5.7,2013-09-09 10:20:00,
2013-09-09 05:34:00,65.8,64.6,29.75,North,-999,0.0,0.0,96,0.00,,,-99.99,WeatherLink 5.7,2013-09-09 10:34:00,
2013-09-09 05:49:00,65.6,64.4,29.75,North,-999,0.0,0.0,96,0.00,,,-99.99,WeatherLink 5.7,2013-09-09 10:49:00,
2013-09-09 06:04:00,65.5,64.6,29.74,North,-999,0.0,0.0,97,0.00,,,-99.99,WeatherLink 5.7,2013-09-09 11:04:00,
2013-09-09 06:19:00,66.0,65.1,29.74,North,-999,0.0,0.0,97,0.00,,,-99.99,WeatherLink 5.7,2013-09-09 11:19:00,
2013-09-09 06:35:00,65.6,64.7,29.75,North,-999,0.0,0.0,97,0.00,,,-99.99,WeatherLink 5.7,2013-09-09 11:35:00,
2013-09-09 06:50:00,66.1,65.2,29.75,North,-999,0.0,0.0,97,0.00,,,-99.99,WeatherLink 5.7,2013-09-09 11:50:00,
2013-09-09 07:05:00,66.1,65.2,29.75,North,-999,0.0,0.0,97,0.00,,,-99.99,WeatherLink 5.7,2013-09-09 12:05:00,
2013-09-09 07:19:00,66.8,65.9,29.76,ESE,112,0.0,2.0,97,0.00,,,-99.99,WeatherLink 5.7,2013-09-09 12:19:00,
2013-09-09 07:35:00,67.1,66.5,29.76,North,-999,0.0,0.0,98,0.00,,,-99.99,WeatherLink 5.7,2013-09-09 12:35:00,
2013-09-09 07:50:00,67.9,67.3,29.76,ESE,112,0.0,2.0,98,0.00,,,-99.99,WeatherLink 5.7,2013-09-09 12:50:00,
2013-09-09 08:05:00,68.9,68.3,29.76,ESE,112,0.0,1.0,98,0.00,,,-99.99,WeatherLink 5.7,2013-09-09 13:05:00,
2013-09-09 08:20:00,69.8,69.2,29.76,SE,135,0.0,4.0,98,0.00,,,-99.99,WeatherLink 5.7,2013-09-09 13:20:00,
2013-09-09 08:35:00,70.4,69.8,29.75,SE,135,0.0,4.0,98,0.00,,,-99.99,WeatherLink 5.7,2013-09-09 13:35:00,
2013-09-09 08:50:00,70.9,70.3,29.75,SE,135,0.0,3.0,98,0.00,,,-99.99,WeatherLink 5.7,2013-09-09 13:50:00,
2013-09-09 09:04:00,71.6,70.7,29.74,SE,135,0.0,2.0,97,0.00,,,-99.99,WeatherLink 5.7,2013-09-09 14:04:00,
2013-09-09 09:19:00,72.5,71.6,29.74,SE,135,0.0,5.0,97,0.00,,,-99.99,WeatherLink 5.7,2013-09-09 14:19:00,
2013-09-09 09:35:00,73.7,72.2,29.74,ESE,112,0.0,3.0,95,0.00,,,-99.99,WeatherLink 5.7,2013-09-09 14:35:00,
2013-09-09 09:50:00,74.9,72.1,29.74,SE,135,0.0,5.0,91,0.00,,,-99.99,WeatherLink 5.7,2013-09-09 14:50:00,
2013-09-09 10:04:00,76.5,72.3,29.73,SE,135,0.0,1.0,87,0.00,,,-99.99,WeatherLink 5.7,2013-09-09 15:04:00,
2013-09-09 10:20:00,77.2,72.3,29.73,SE,135,0.0,6.0,85,0.00,,,-99.99,WeatherLink 5.7,2013-09-09 15:20:00,
2013-09-09 10:35:00,77.9,71.6,29.73,SE,135,0.0,4.0,81,0.00,,,-99.99,WeatherLink 5.7,2013-09-09 15:35:00,
2013-09-09 10:49:00,78.8,72.8,29.73,WSW,247,0.0,4.0,82,0.00,,,-99.99,WeatherLink 5.7,2013-09-09 15:49:00,
2013-09-09 11:04:00,79.0,71.9,29.73,SSW,202,0.0,1.0,79,0.00,,,-99.99,WeatherLink 5.7,2013-09-09 16:04:00,
2013-09-09 11:19:00,79.6,72.5,29.73,West,270,0.0,5.0,79,0.00,,,-99.99,WeatherLink 5.7,2013-09-09 16:19:00,
2013-09-09 11:34:00,80.1,72.6,29.72,ESE,112,0.0,5.0,78,0.00,,,-99.99,WeatherLink 5.7,2013-09-09 16:34:00,
2013-09-09 11:50:00,81.1,73.2,29.72,SE,135,0.0,6.0,77,0.00,,,-99.99,WeatherLink 5.7,2013-09-09 16:50:00,
2013-09-09 12:04:00,82.0,72.9,29.72,SE,135,1.0,6.0,74,0.00,,,-99.99,WeatherLink 5.7,2013-09-09 17:04:00,
2013-09-09 12:19:00,82.8,74.1,29.72,WSW,247,0.0,6.0,75,0.00,,,-99.99,WeatherLink 5.7,2013-09-09 17:19:00,
2013-09-09 12:35:00,84.0,74.0,29.70,ESE,112,0.0,6.0,72,0.00,,,-99.99,WeatherLink 5.7,2013-09-09 17:35:00,
2013-09-09 12:50:00,84.7,74.3,29.70,SE,135,0.0,4.0,71,0.00,,,-99.99,WeatherLink 5.7,2013-09-09 17:50:00,
2013-09-09 13:04:00,85.7,73.9,29.70,SE,135,0.0,4.0,68,0.00,,,-99.99,WeatherLink 5.7,2013-09-09 18:04:00,
2013-09-09 13:19:00,86.5,73.8,29.69,West,270,0.0,5.0,66,0.00,,,-99.99,WeatherLink 5.7,2013-09-09 18:19:00,
2013-09-09 13:34:00,87.4,74.6,29.68,ESE,112,0.0,3.0,66,0.00,,,-99.99,WeatherLink 5.7,2013-09-09 18:34:00,
2013-09-09 13:50:00,87.6,74.4,29.68,SE,135,0.0,4.0,65,0.00,,,-99.99,WeatherLink 5.7,2013-09-09 18:50:00,
2013-09-09 14:04:00,88.2,74.0,29.68,SE,135,1.0,6.0,63,0.00,,,-99.99,WeatherLink 5.7,2013-09-09 19:04:00,
2013-09-09 14:20:00,88.8,74.6,29.67,SE,135,0.0,4.0,63,0.00,,,-99.99,WeatherLink 5.7,2013-09-09 19:20:00,
2013-09-09 14:35:00,89.3,74.1,29.67,SE,135,1.0,5.0,61,0.00,,,-99.99,WeatherLink 5.7,2013-09-09 19:35:00,
2013-09-09 14:50:00,89.9,75.1,29.66,ESE,112,0.0,4.0,62,0.00,,,-99.99,WeatherLink 5.7,2013-09-09 19:50:00,
2013-09-09 15:04:00,89.9,73.7,29.65,SE,135,1.0,7.0,59,0.00,,,-99.99,WeatherLink 5.7,2013-09-09 20:04:00,
2013-09-09 15:19:00,90.1,73.8,29.65,SE,135,1.0,6.0,59,0.00,,,-99.99,WeatherLink 5.7,2013-09-09 20:19:00,
2013-09-09 15:35:00,90.7,73.9,29.64,SE,135,0.0,5.0,58,0.00,,,-99.99,WeatherLink 5.7,2013-09-09 20:35:00,
2013-09-09 15:50:00,91.4,74.0,29.64,SE,135,0.0,6.0,57,0.00,,,-99.99,WeatherLink 5.7,2013-09-09 20:50:00,
2013-09-09 16:05:00,91.6,73.7,29.64,SE,135,1.0,7.0,56,0.00,,,-99.99,WeatherLink 5.7,2013-09-09 21:05:00,
2013-09-09 16:20:00,92.3,73.8,29.64,SE,135,1.0,5.0,55,0.00,,,-99.99,WeatherLink 5.7,2013-09-09 21:20:00,
2013-09-09 16:35:00,93.4,73.7,29.63,SE,135,1.0,11.0,53,0.00,,,-99.99,WeatherLink 5.7,2013-09-09 21:35:00,
2013-09-09 16:49:00,92.9,72.7,29.63,SE,135,1.0,11.0,52,0.00,,,-99.99,WeatherLink 5.7,2013-09-09 21:49:00,
2013-09-09 17:04:00,93.2,73.5,29.63,SE,135,1.0,5.0,53,0.00,,,-99.99,WeatherLink 5.7,2013-09-09 22:04:00,
2013-09-09 17:20:00,93.4,73.1,29.64,SE,135,0.0,9.0,52,0.00,,,-99.99,WeatherLink 5.7,2013-09-09 22:20:00,
2013-09-09 17:35:00,93.2,72.4,29.64,SE,135,0.0,5.0,51,0.00,,,-99.99,WeatherLink 5.7,2013-09-09 22:35:00,
2013-09-09 17:50:00,92.7,72.5,29.64,SE,135,0.0,4.0,52,0.00,,,-99.99,WeatherLink 5.7,2013-09-09 22:50:00,
2013-09-09 18:05:00,92.3,73.2,29.64,SE,135,0.0,2.0,54,0.00,,,-99.99,WeatherLink 5.7,2013-09-09 23:05:00,
2013-09-09 18:20:00,91.2,73.3,29.64,SE,135,0.0,1.0,56,0.00,,,-99.99,WeatherLink 5.7,2013-09-09 23:20:00,
2013-09-09 18:35:00,89.9,73.7,29.64,North,-999,0.0,0.0,59,0.00,,,-99.99,WeatherLink 5.7,2013-09-09 23:35:00,
2013-09-09 18:50:00,88.6,73.4,29.65,North,-999,0.0,0.0,61,0.00,,,-99.99,WeatherLink 5.7,2013-09-09 23:50:00,
2013-09-09 19:04:00,87.2,74.0,29.65,SE,135,0.0,1.0,65,0.00,,,-99.99,WeatherLink 5.7,2013-09-10 00:04:00,
2013-09-09 19:19:00,86.1,73.0,29.65,North,-999,0.0,0.0,65,0.00,,,-99.99,WeatherLink 5.7,2013-09-10 00:19:00,
2013-09-09 19:35:00,85.5,72.4,29.66,SE,135,0.0,1.0,65,0.00,,,-99.99,WeatherLink 5.7,2013-09-10 00:35:00,
2013-09-09 19:50:00,85.5,71.5,29.66,SE,135,0.0,1.0,63,0.00,,,-99.99,WeatherLink 5.7,2013-09-10 00:50:00,
2013-09-09 20:04:00,85.3,70.8,29.66,SE,135,0.0,1.0,62,0.00,,,-99.99,WeatherLink 5.7,2013-09-10 01:04:00,
2013-09-09 20:20:00,85.7,71.2,29.66,SE,135,0.0,1.0,62,0.00,,,-99.99,WeatherLink 5.7,2013-09-10 01:20:00,
2013-09-09 20:35:00,85.3,70.8,29.66,SE,135,0.0,1.0,62,0.00,,,-99.99,WeatherLink 5.7,2013-09-10 01:35:00,
2013-09-09 20:49:00,84.9,70.4,29.67,SSW,202,0.0,2.0,62,0.00,,,-99.99,WeatherLink 5.7,2013-09-10 01:49:00,
2013-09-09 21:05:00,84.7,70.2,29.67,SW,225,0.0,2.0,62,0.00,,,-99.99,WeatherLink 5.7,2013-09-10 02:05:00,
2013-09-09 21:19:00,84.7,70.7,29.66,SE,135,0.0,5.0,63,0.00,,,-99.99,WeatherLink 5.7,2013-09-10 02:19:00,
2013-09-09 21:34:00,84.5,70.5,29.67,SSE,157,0.0,4.0,63,0.00,,,-99.99,WeatherLink 5.7,2013-09-10 02:34:00,
2013-09-09 21:49:00,84.0,71.0,29.67,South,180,0.0,6.0,65,0.00,,,-99.99,WeatherLink 5.7,2013-09-10 02:49:00,
2013-09-09 22:04:00,83.6,71.5,29.68,SE,135,0.0,3.0,67,0.00,,,-99.99,WeatherLink 5.7,2013-09-10 03:04:00,
2013-09-09 22:19:00,83.2,71.5,29.67,East,90,0.0,5.0,68,0.00,,,-99.99,WeatherLink 5.7,2013-09-10 03:19:00,
2013-09-09 22:35:00,82.6,71.8,29.68,WSW,247,0.0,4.0,70,0.00,,,-99.99,WeatherLink 5.7,2013-09-10 03:35:00,
2013-09-09 22:50:00,82.6,71.8,29.68,West,270,0.0,6.0,70,0.00,,,-99.99,WeatherLink 5.7,2013-09-10 03:50:00,
2013-09-09 23:05:00,82.4,71.6,29.69,WSW,247,0.0,3.0,70,0.00,,,-99.99,WeatherLink 5.7,2013-09-10 04:05:00,
2013-09-09 23:20:00,82.0,71.2,29.69,North,-999,0.0,0.0,70,0.00,,,-99.99,WeatherLink 5.7,2013-09-10 04:20:00,
2013-09-09 23:35:00,81.6,70.9,29.69,WSW,247,0.0,4.0,70,0.00,,,-99.99,WeatherLink 5.7,2013-09-10 04:35:00,
2013-09-09 23:50:00,81.2,70.5,29.69,WSW,247,0.0,5.0,70,0.00,,,-99.99,WeatherLink 5.7,2013-09-10 04:50:00,